Flight Track Log - Related Links

Times and Time Zones

All times are in EDT time to prevent confusion due to time zone crossing. See the SWA419 flight status page for this flight to view local times or setup timezone preferences in your user account.

Time Position Orientation Groundspeed Altitude Reporting Facility
EDT Latitude Longitude Course Direction KTS MPH feet Rate Location/Type
Fri 12:19:44 AM 37.3667 -121.9333 321° Northwest 145 167 1,100  Level Northern Cal TRACON
Fri 12:20:17 AM 37.3878 -121.9547 321° Northwest 162 186 2,100 2,667 Climbing Oakland Center
Fri 12:20:38 AM 37.4167 -121.9667 342° North 203 234 3,500 2,148 Climbing Northern Cal TRACON
Fri 12:21:38 AM 37.4000 -121.9000 107° East 234 269 5,000 1,630 Climbing Northern Cal TRACON
Fri 12:23:20 AM 37.3233 -121.8019 134° Southeast 258 297 7,900 2,245 Climbing Oakland Center
Fri 12:24:21 AM 37.2619 -121.7311 137° Southeast 292 336 11,100 2,927 Climbing Oakland Center
Fri 12:25:23 AM 37.1669 -121.6264 139° Southeast 377 434 13,900 2,976 Climbing Oakland Center
Fri 12:26:24 AM 37.0803 -121.5306 139° Southeast 408 470 17,200 2,951 Climbing Oakland Center
Fri 12:27:25 AM 36.9936 -121.4306 137° Southeast 423 487 19,900 2,607 Climbing Oakland Center
Fri 12:28:26 AM 36.9014 -121.3289 139° Southeast 440 506 22,500 2,311 Climbing Oakland Center
Fri 12:29:27 AM 36.8169 -121.2372 139° Southeast 451 519 24,600 2,016 Climbing Oakland Center
Fri 12:30:28 AM 36.7178 -121.1311 139° Southeast 466 536 26,600 2,213 Climbing Oakland Center
Fri 12:31:29 AM 36.5958 -121.0011 139° Southeast 482 555 29,100 2,311 Climbing Oakland Center
Fri 12:32:30 AM 36.4972 -120.8903 138° Southeast 479 551 31,300 2,066 Climbing Oakland Center
Fri 12:33:31 AM 36.4000 -120.7808 138° Southeast 473 544 33,300 1,967 Climbing Oakland Center
Fri 12:34:32 AM 36.3019 -120.6753 139° Southeast 467 537 35,300 1,574 Climbing Oakland Center
Fri 12:35:33 AM 36.2014 -120.5717 140° Southeast 468 539 36,500 843 Climbing Oakland Center
Fri 12:36:33 AM 36.1017 -120.4600 138° Southeast 489 563 37,000 248 Climbing Oakland Center
Fri 12:37:34 AM 36.0000 -120.3536 140° Southeast 468 539 37,000  Level Oakland Center
Fri 12:38:35 AM 35.8989 -120.2458 139° Southeast 473 544 37,000  Level Oakland Center
Fri 12:39:36 AM 35.7969 -120.1381 139° Southeast 478 550 37,000  Level Oakland Center
Fri 12:40:37 AM 35.6950 -120.0317 140° Southeast 477 549 37,000 -590 Level Oakland Center
Fri 12:41:38 AM 35.5919 -119.9294 141° Southeast 471 542 35,800 -984 Descending Oakland Center
Fri 12:42:39 AM 35.4769 -119.8425 148° Southeast 477 549 35,000 -836 Descending Oakland Center
Fri 12:43:40 AM 35.3611 -119.7581 149° Southeast 479 551 34,100 -738 Descending Oakland Center
Fri 12:44:41 AM 35.2469 -119.6775 150° Southeast 473 544 33,500 -492 Descending Oakland Center
Fri 12:45:42 AM 35.1325 -119.5931 149° Southeast 476 548 33,100 -443 Descending Oakland Center
Fri 12:46:43 AM 35.0178 -119.5117 150° Southeast 476 548 32,600 -443 Descending Oakland Center
Fri 12:47:44 AM 34.9050 -119.4281 149° Southeast 472 543 32,200 -443 Descending Oakland Center
Fri 12:48:45 AM 34.7908 -119.3458 149° Southeast 476 548 31,700 -689 Descending Oakland Center
Fri 12:49:46 AM 34.6542 -119.2478 149° Southeast 474 545 30,800 -836 Descending Oakland Center
Fri 12:50:47 AM 34.5381 -119.1639 149° Southeast 481 554 30,000 -1,378 Descending Oakland Center
Fri 12:52:01 AM 34.4128 -119.0778 150° Southeast 484 557 27,700 -2,559 Descending Los Angeles Center
Fri 12:53:03 AM 34.2769 -118.9819 150° Southeast 474 545 24,200 -3,073 Descending Los Angeles Center
Fri 12:54:04 AM 34.1681 -118.9033 149° Southeast 456 525 21,400 -2,705 Descending Los Angeles Center
Fri 12:55:05 AM 34.0644 -118.8314 150° Southeast 434 499 18,700 -2,732 Descending Los Angeles Center
Fri 12:56:07 AM 33.9636 -118.7592 149° Southeast 418 481 15,800 -2,293 Descending Los Angeles Center
Fri 12:57:08 AM 33.8558 -118.6978 155° Southeast 395 455 14,000 -1,082 Descending Los Angeles Center
Fri 12:58:09 AM 33.7631 -118.6639 163° South 389 448 13,600 -1,426 Descending Los Angeles Center
Fri 12:59:10 AM 33.6606 -118.6289 164° South 388 447 11,100 -1,756 Descending Los Angeles Center
Fri 01:00:12 AM 33.5525 -118.5711 156° South 355 409 10,000 -1,073 Descending Los Angeles Center
Fri 01:01:13 AM 33.5217 -118.4889 114° Southeast 306 352 8,900 -1,230 Descending Los Angeles Center
Fri 01:02:14 AM 33.5278 -118.3933 86° East 294 338 7,500 -1,366 Descending Los Angeles Center
Fri 01:03:16 AM 33.5347 -118.3003 85° East 290 334 6,100 -1,220 Descending Los Angeles Center
Fri 01:04:17 AM 33.5411 -118.2100 85° East 282 325 5,000 -984 Descending Los Angeles Center
Fri 01:05:18 AM 33.5750 -118.1347 62° Northeast 273 314 4,100 -976 Descending Los Angeles Center
Fri 01:06:20 AM 33.6333 -118.0667 44° Northeast 247 284 3,000 -738 Descending Southern California TRACON
Fri 01:07:20 AM 33.6833 -118.0167 40° Northeast 214 246 2,600 -500 Descending Southern California TRACON
Fri 01:08:20 AM 33.7167 -117.9667 51° Northeast 208 239 2,000 -400 Descending Southern California TRACON
Fri 01:09:20 AM 33.7333 -117.9000 73° East 174 200 1,800 -400 Descending Southern California TRACON
Fri 01:10:20 AM 33.7167 -117.8667 121° Southeast 144 166 1,200 -744 Descending Southern California TRACON
Fri 01:11:21 AM 33.6833 -117.8667 180° South 134 154 300 -885 Descending Southern California TRACON
Fri 01:14:00 AM 33.6757 -117.8682 132° Southeast  Level Estimated

Login

Don't have an account? Register now (free) for customized features, flight alerts, and more!